Position Fahrer Laps Zeit Diff Beste Runde Fahrzeug Status Gesamt Bonuspunkte Strafpunkte
1 (2) Felix Arndt 13 25:26.321 - 1:56.802 BMW M2 CS Racing Beendet 104 4 0
2 (1) Leon Harhoff 13 25:26.649 0:00.328 1:56.730 BMW M2 CS Racing Beendet 97 3 0
3 (4) Leon Augustat 13 25:32.804 0:06.483 1:57.180 BMW M2 CS Racing Beendet 89 0 0
4 (6) Luis Roters 13 25:37.701 0:11.380 1:57.022 BMW M2 CS Racing Beendet 85 0 0
5 (3) Jan-Erik Tügel 13 25:41.006 0:14.685 1:57.170 BMW M2 CS Racing Beendet 82 1 0
6 (7) Florian Maak 13 25:44.890 0:18.569 1:57.430 BMW M2 CS Racing Beendet 77 0 0
7 (5) Max Schwanke 13 25:48.582 0:22.261 1:57.222 BMW M2 CS Racing Beendet 73 0 0
8 (15) Nico Kaluza 13 25:50.749 0:24.428 1:57.870 BMW M2 CS Racing Beendet 70 0 0
9 (8) Janis Strietholt 13 25:53.695 0:27.374 1:58.225 BMW M2 CS Racing Beendet 67 0 0
10 (14) Marcel Kühnel 13 26:07.788 0:41.467 1:59.202 BMW M2 CS Racing Beendet 64 0 0
- 11 (11) Tobias Lambrich 13 26:09.224 0:42.903 1:59.365 BMW M2 CS Racing Beendet 61 0 0
- 12 (12) René Patzer 13 26:13.047 0:46.726 1:58.680 BMW M2 CS Racing Beendet 58 0 0
13 (10) Michael Klose 13 26:16.516 0:50.195 1:58.895 BMW M2 CS Racing Beendet 55 0 0
14 (9) Daniel Rabenstein 13 26:27.786 1:01.465 1:59.477 BMW M2 CS Racing Beendet 52 0 0
15 (13) Huck Norbert 13 26:28.477 1:02.156 1:59.872 BMW M2 CS Racing Beendet 49 0 0
- 16 (-) Ferenc Nagy 13 26:35.228 1:08.907 2:00.812 BMW M2 CS Racing Beendet 46 0 0

Rennverlauf

Qualifying

Pos Fahrer Zeit Diff
1 Leon Harhoff 1:56.667 -
2 Felix Arndt 1:56.695 0:00.028
3 Jan-Erik Tügel 1:56.867 0:00.200
4 Leon Augustat 1:57.005 0:00.338
5 Max Schwanke 1:57.025 0:00.358
6 Luis Roters 1:57.125 0:00.458
7 Florian Maak 1:57.140 0:00.473
8 Janis Strietholt 1:57.805 0:01.138
9 Daniel Rabenstein 1:58.702 0:02.035
10 Michael Klose 1:58.797 0:02.130
11 Tobias Lambrich 1:59.000 0:02.333
12 René Patzer 1:59.217 0:02.550
13 Huck Norbert 2:00.060 0:03.393
14 Marcel Kühnel - -
15 Nico Kaluza - -

Climber

Diff Startpos Endpos Fahrer
7 15 8 Nico Kaluza
4 14 10 Marcel Kühnel
2 6 4 Luis Roters
1 2 1 Felix Arndt
1 4 3 Leon Augustat
1 7 6 Florian Maak
- - 11 11 Tobias Lambrich
- - 12 12 René Patzer
-1 1 2 Leon Harhoff
-1 8 9 Janis Strietholt
-2 3 5 Jan-Erik Tügel
-2 5 7 Max Schwanke
-2 13 15 Huck Norbert
-3 10 13 Michael Klose
-5 9 14 Daniel Rabenstein
-16 0 16 Ferenc Nagy

Die schnellsten 5 pro Runde

Runde 1

Pos Rennpos Fahrer Zeit Diff
1 1 Felix Arndt 2:00.210 -
2 2 Leon Harhoff 2:00.610 0:00.400
3 3 Leon Augustat 2:01.461 0:01.251
4 4 Jan-Erik Tügel 2:02.863 0:02.653
5 5 Luis Roters 2:02.866 0:02.656

Runde 2

Pos Rennpos Fahrer Zeit Diff
1 2 Leon Harhoff 1:56.802 -
2 1 Felix Arndt 1:56.880 0:00.078
3 3 Leon Augustat 1:57.315 0:00.513
4 4 Jan-Erik Tügel 1:59.112 0:02.310
5 5 Max Schwanke 1:59.307 0:02.505

Runde 3

Pos Rennpos Fahrer Zeit Diff
1 1 Felix Arndt 1:56.877 -
2 2 Leon Harhoff 1:57.202 0:00.325
3 3 Leon Augustat 1:57.305 0:00.428
4 4 Max Schwanke 1:58.365 0:01.488
5 5 Luis Roters 1:58.687 0:01.810

Runde 4

Pos Rennpos Fahrer Zeit Diff
1 1 Felix Arndt 1:56.802 -
2 2 Leon Harhoff 1:57.095 0:00.293
3 7 Jan-Erik Tügel 1:57.170 0:00.368
4 3 Leon Augustat 1:57.180 0:00.378
5 5 Luis Roters 1:57.295 0:00.493

Runde 5

Pos Rennpos Fahrer Zeit Diff
1 2 Leon Harhoff 1:56.730 -
2 1 Felix Arndt 1:56.962 0:00.232
3 5 Luis Roters 1:57.122 0:00.392
4 4 Max Schwanke 1:57.222 0:00.492
5 3 Leon Augustat 1:57.427 0:00.697

Runde 6

Pos Rennpos Fahrer Zeit Diff
1 2 Leon Harhoff 1:56.957 -
2 5 Luis Roters 1:57.022 0:00.065
3 1 Felix Arndt 1:57.052 0:00.095
4 6 Jan-Erik Tügel 1:57.280 0:00.323
5 4 Max Schwanke 1:57.295 0:00.338

Runde 7

Pos Rennpos Fahrer Zeit Diff
1 1 Felix Arndt 1:56.857 -
2 2 Leon Harhoff 1:57.047 0:00.190
3 5 Luis Roters 1:57.487 0:00.630
4 3 Leon Augustat 1:57.505 0:00.648
5 6 Jan-Erik Tügel 1:57.715 0:00.858

Runde 8

Pos Rennpos Fahrer Zeit Diff
1 1 Felix Arndt 1:57.235 -
2 2 Leon Harhoff 1:57.265 0:00.030
3 5 Jan-Erik Tügel 1:57.265 0:00.030
4 6 Florian Maak 1:57.607 0:00.372
5 3 Leon Augustat 1:57.652 0:00.417

Runde 9

Pos Rennpos Fahrer Zeit Diff
1 2 Leon Harhoff 1:57.002 -
2 1 Felix Arndt 1:57.167 0:00.165
3 6 Florian Maak 1:57.430 0:00.428
4 5 Jan-Erik Tügel 1:57.442 0:00.440
5 4 Luis Roters 1:57.497 0:00.495

Runde 10

Pos Rennpos Fahrer Zeit Diff
1 2 Leon Harhoff 1:56.857 -
2 1 Felix Arndt 1:57.090 0:00.233
3 3 Leon Augustat 1:57.365 0:00.508
4 6 Florian Maak 1:57.670 0:00.813
5 7 Max Schwanke 1:57.690 0:00.833

Runde 11

Pos Rennpos Fahrer Zeit Diff
1 1 Felix Arndt 1:57.100 -
2 3 Leon Augustat 1:57.492 0:00.392
3 2 Leon Harhoff 1:57.612 0:00.512
4 4 Luis Roters 1:57.627 0:00.527
5 7 Max Schwanke 1:57.887 0:00.787

Runde 12

Pos Rennpos Fahrer Zeit Diff
1 2 Leon Harhoff 1:57.055 -
2 1 Felix Arndt 1:57.232 0:00.177
3 5 Jan-Erik Tügel 1:57.510 0:00.455
4 4 Luis Roters 1:57.602 0:00.547
5 6 Florian Maak 1:57.665 0:00.610

Runde 13

Pos Rennpos Fahrer Zeit Diff
1 5 Jan-Erik Tügel 1:57.755 -
2 6 Florian Maak 1:57.815 0:00.060
3 4 Luis Roters 1:57.895 0:00.140
4 7 Max Schwanke 1:58.000 0:00.245
5 9 Janis Strietholt 1:58.347 0:00.592

SERVER

0 / 61
virtualracing.org #1 GTM
Training 1Lime Rock Park -- Uphill Chicane
0 / 81
virtualracing.org #3 FS
Training 1Oulton Park International NC
0 / 81
virtualracing.org #4 LSM
Training 1Spa-Francorchamps Endurance
0 / 34
virtualracing.org #5 VRF1S
Training 1Zandvoort 2021
1 / 34
virtualracing.org #6 VRCS
Training 1Donington Park National Circuit
0 / 81
virtualracing.org #P1 BTCC
Training 1Croft -- Road Course
0 / 81
virtualracing.org #P2 CA
Training 1Oulton Park Fosters
0 / 34
virtualracing.org #P3 Mini
Training 1Brands Hatch GP
0 / 33
virtualracing.org #P4 IR18
Training 1Portland Full Course
0/31
virtualracing.org#4 GTC Training Standard
TrainingDaytona International Speedway - Road Course
0/31
virtualracing.org#5 GTC Training A
TrainingDaytona International Speedway - Road Course
0/24
virtualracing.org#30 ALT Training
TrainingFuji Speedway - Grand Prix Circuit 1968
0/32
virtualracing.org#33 GTC Starttest
TrainingDaytona International Speedway - Road Course